Red Bluff, CA (96080)

4:53 AM PDT on August 21, 2014 (GMT -0700)
Red Bluff Municipal | Change Station
CLOSE
Current Station
Airport
Location: Red Bluff,
Elevation: 351 ft
Nearby Weather Stations

Elev 351 ft 40.15 °N, 122.25 °W | Updated 59 minutes ago

Clear
Clear
65 °F
Feels Like 65 °F
N
5
Wind Variable Wind from NW

Today
High -- | Low -- °F
--% Chance of Precip.
Yesterday
High -- | Low -- °F
Precip. -- in
6:26 AM 7:57 PM
Waning Crescent, 15% visible
Pressure 29.91 in
Visibility 10.0 miles
Clouds Clear
Dew Point 55 °F
Humidity 70%
Rainfall 0.00 in
Snow Depth Not available.
UV 0 out of 12
Pollen 7.40 out of 12
Air Quality Not available.
Flu Activity Not available.
METAR KRBL 211054Z AUTO 31004KT 10SM CLR 18/13 A2992 RMK AO2 SLP127 T01830128

More Conditions Fewer Conditions

Pressure 29.91 in
Visibility 10.0 miles
Clouds Clear
Dew Point 55 °F
Humidity 70%
Rainfall 0.00 in
Snow Depth Not available.
UV 0 out of 12
Pollen 7.40 out of 12
Air Quality Not available.
Flu Activity Not available.
METAR KRBL 211054Z AUTO 31004KT 10SM CLR 18/13 A2992 RMK AO2 SLP127 T01830128

More Conditions Fewer Conditions

10-Day Weather Forecast

Almanac

Astronomy

Aug. 21, 2014 Rise Set
Actual Time 6:26 AM PDT 7:57 PM PDT
Civil Twilight 5:57 AM PDT 8:25 PM PDT
Nautical Twilight 5:23 AM PDT 9:00 PM PDT
Astronomical Twilight 4:46 AM PDT 9:36 PM PDT
Moon 3:01 AM PDT 5:29 PM PDT
Length of Visible Light 14h 28m
Length of Day
13h 31m
Tomorrow will be 2m 26s shorter.
Waning Crescent, 15% of the Moon is Illuminated
Today
Waning Crescent
Aug 25
New
Sep 2
First Quarter
Sep 8
Full
Sep 15
Last Quarter

Today's Extremes

State Highs State Lows

Community

WunderPhotos

Upload Photos

1,745,864 photos uploaded!

Nearby

Snow Depth

Station Depth Elevation
Adin Mountain 1 in 6200 ft
Independence Creek 0 in 6500 ft
CSS Lab 1 in 6900 ft
Tahoe City Cross 0 in 6750 ft
Cedar Pass 1 in 7100 ft

Earthquake Activity

City Distance Mag. Time & Date
No recent earthquake activity has been reported nearby.
Minimum magnitude displayed is 2.5.

Coastal Water Temperatures

Place Temperature
No Stations Reporting

Nearby Weather Stations